Time;durP1;ratioP1;P1;durP2;ratioP2;P2;SDS_P1;SDS_P2;PMS_P1;PMS_P2;Temp;Humidity;BMP_temperature;BMP_pressure;BME280_temperature;BME280_humidity;BME280_pressure;Samples;Min_cycle;Max_cycle;Signal;HPM_P1;HPM_P2
2023/01/28 06:54:56;;;;;;;2.88;1.90;;;;;;;;;;10589111;27;20403;-83
2023/01/28 06:59:57;;;;;;;3.63;2.38;;;;;;;;;;10586244;28;20111;-82
2023/01/28 07:04:58;;;;;;;5.22;2.78;;;;;;;;;;10582242;28;20472;-83
2023/01/28 07:09:59;;;;;;;3.53;3.22;;;;;;;;;;10583310;28;20024;-84
2023/01/28 07:15:00;;;;;;;2.40;2.20;;;;;;;;;;10589576;28;20478;-83
2023/01/28 07:20:01;;;;;;;2.33;1.92;;;;;;;;;;10585695;28;20059;-84
2023/01/28 07:25:02;;;;;;;4.53;3.13;;;;;;;;;;10584672;28;20114;-82
2023/01/28 07:30:03;;;;;;;6.40;5.25;;;;;;;;;;10585054;28;20181;-85
2023/01/28 07:35:04;;;;;;;3.63;2.40;;;;;;;;;;10586878;28;20036;-83
2023/01/28 07:40:05;;;;;;;;;;;;;;;;;;10592629;28;20122;-83
2023/01/28 07:45:07;;;;;;;2.55;1.90;;;;;;;;;;10593244;28;19925;-85
2023/01/28 07:50:09;;;;;;;3.75;2.33;;;;;;;;;;10587166;28;20054;-82
2023/01/28 07:55:14;;;;;;;3.33;2.75;;;;;;;;;;10592039;28;20524;-85
2023/01/28 08:00:15;;;;;;;3.70;2.00;;;;;;;;;;10597805;28;20055;-82
2023/01/28 08:05:17;;;;;;;4.05;3.10;;;;;;;;;;10575998;28;20035;-83
2023/01/28 08:10:18;;;;;;;4.43;3.67;;;;;;;;;;10578588;28;20088;-81
2023/01/28 08:15:19;;;;;;;3.13;2.72;;;;;;;;;;10581165;28;20028;-80
2023/01/28 08:20:20;;;;;;;;;;;;;;;;;;10551275;28;20071;-79
2023/01/28 08:25:21;;;;;;;5.38;4.30;;;;;;;;;;10551531;28;20268;-80
2023/01/28 08:30:22;;;;;;;3.67;3.38;;;;;;;;;;10551389;28;20099;-80
2023/01/28 08:35:23;;;;;;;3.92;2.95;;;;;;;;;;10549619;28;20501;-80
2023/01/28 08:40:24;;;;;;;6.75;4.93;;;;;;;;;;10550833;28;20031;-79
2023/01/28 08:45:27;;;;;;;3.40;3.10;;;;;;;;;;10548581;28;20474;-78
2023/01/28 08:50:31;;;;;;;5.10;3.25;;;;;;;;;;10548311;28;20038;-80
2023/01/28 08:55:33;;;;;;;4.22;3.30;;;;;;;;;;10551054;28;20035;-79
2023/01/28 09:00:34;;;;;;;7.60;4.95;;;;;;;;;;10550858;28;20508;-79
2023/01/28 09:05:36;;;;;;;4.32;3.15;;;;;;;;;;10551091;28;20028;-81
2023/01/28 09:10:37;;;;;;;4.10;2.90;;;;;;;;;;10552031;28;20107;-81
2023/01/28 09:15:38;;;;;;;;;;;;;;;;;;10551912;28;20055;-81
2023/01/28 09:20:39;;;;;;;4.88;3.78;;;;;;;;;;10555638;28;19920;-81
2023/01/28 09:25:40;;;;;;;4.50;3.65;;;;;;;;;;10559899;28;20021;-79
2023/01/28 09:30:41;;;;;;;3.70;3.33;;;;;;;;;;10551623;28;20036;-82
2023/01/28 09:35:42;;;;;;;3.10;2.20;;;;;;;;;;10560047;28;20025;-83
2023/01/28 09:40:44;;;;;;;3.60;3.30;;;;;;;;;;10558377;28;20036;-83
2023/01/28 09:45:46;;;;;;;4.00;3.35;;;;;;;;;;10557001;28;20169;-83
2023/01/28 09:50:49;;;;;;;2.90;2.30;;;;;;;;;;10556571;28;20040;-80
2023/01/28 09:55:50;;;;;;;3.58;2.92;;;;;;;;;;10552222;28;20028;-80
2023/01/28 10:01:10;;;;;;;3.95;2.90;;;;;;;;;;10551076;28;20491;-79
2023/01/28 10:06:13;;;;;;;12.15;9.05;;;;;;;;;;10554930;28;20020;-79
2023/01/28 10:11:26;;;;;;;3.47;3.08;;;;;;;;;;10553876;28;20035;-83
2023/01/28 10:16:30;;;;;;;3.20;2.50;;;;;;;;;;10555723;28;20024;-83
2023/01/28 10:21:36;;;;;;;4.82;3.30;;;;;;;;;;10553419;28;20050;-82
2023/01/28 10:26:39;;;;;;;3.00;2.40;;;;;;;;;;10553657;28;20024;-83
2023/01/28 10:31:51;;;;;;;6.97;3.88;;;;;;;;;;10554325;28;20039;-83
2023/01/28 10:36:52;;;;;;;3.50;2.45;;;;;;;;;;10554659;28;20024;-83
2023/01/28 10:41:53;;;;;;;5.25;3.45;;;;;;;;;;10557771;28;20032;-82
2023/01/28 10:46:54;;;;;;;;;;;;;;;;;;10555878;28;20036;-83
2023/01/28 10:51:55;;;;;;;6.75;6.15;;;;;;;;;;10553080;28;19916;-81
2023/01/28 10:57:01;;;;;;;5.30;4.80;;;;;;;;;;10553630;28;20469;-81
2023/01/28 11:02:04;;;;;;;6.82;6.00;;;;;;;;;;10551659;28;20030;-82
2023/01/28 11:07:06;;;;;;;5.70;5.10;;;;;;;;;;10550151;28;20054;-81
2023/01/28 11:12:12;;;;;;;5.75;5.03;;;;;;;;;;10551859;28;20028;-81
2023/01/28 11:17:16;;;;;;;5.20;3.85;;;;;;;;;;10550630;28;20101;-81
2023/01/28 11:22:35;;;;;;;7.07;5.47;;;;;;;;;;10552439;28;20073;-81
2023/01/28 11:27:36;;;;;;;6.35;4.90;;;;;;;;;;10548845;28;20020;-81
2023/01/28 11:32:37;;;;;;;8.73;5.60;;;;;;;;;;10550522;28;20464;-81
2023/01/28 11:37:48;;;;;;;7.65;5.82;;;;;;;;;;10548991;28;20093;-81
2023/01/28 11:42:52;;;;;;;6.78;4.80;;;;;;;;;;10558384;28;20043;-81
2023/01/28 11:47:58;;;;;;;5.70;4.85;;;;;;;;;;10560860;28;20091;-81
2023/01/28 11:53:19;;;;;;;8.85;7.47;;;;;;;;;;10561006;28;20036;-80
2023/01/28 11:58:37;;;;;;;4.07;3.45;;;;;;;;;;10558759;28;20373;-81
2023/01/28 12:03:57;;;;;;;14.30;12.90;;;;;;;;;;10560103;28;20123;-83
2023/01/28 12:09:11;;;;;;;10.57;8.35;;;;;;;;;;10553526;28;20028;-80
2023/01/28 12:14:18;;;;;;;5.82;5.22;;;;;;;;;;10553274;28;20028;-80
2023/01/28 12:19:38;;;;;;;8.75;5.85;;;;;;;;;;10553040;28;20051;-81
2023/01/28 12:24:51;;;;;;;6.88;5.32;;;;;;;;;;10552885;28;20122;-81
2023/01/28 12:30:00;;;;;;;6.50;5.35;;;;;;;;;;10553539;28;20115;-81
2023/01/28 12:35:11;;;;;;;8.52;6.05;;;;;;;;;;10553372;28;20118;-81
2023/01/28 12:40:19;;;;;;;7.70;6.53;;;;;;;;;;10554063;22;20113;-80
2023/01/28 12:45:24;;;;;;;7.75;6.05;;;;;;;;;;10495118;28;20025;-81
2023/01/28 12:50:28;;;;;;;6.95;5.07;;;;;;;;;;10488324;28;20032;-81
2023/01/28 12:55:37;;;;;;;7.68;6.85;;;;;;;;;;10515547;28;20024;-80
2023/01/28 13:00:44;;;;;;;6.38;3.53;;;;;;;;;;10501911;28;20052;-80
2023/01/28 13:05:50;;;;;;;9.43;6.45;;;;;;;;;;10500749;28;20025;-84
2023/01/28 13:10:52;;;;;;;10.60;9.60;;;;;;;;;;10508049;28;20035;-85
2023/01/28 13:15:56;;;;;;;8.30;7.13;;;;;;;;;;10508098;28;20063;-85
2023/01/28 13:20:57;;;;;;;6.63;6.03;;;;;;;;;;10507103;28;20029;-86
2023/01/28 13:26:08;;;;;;;6.95;5.60;;;;;;;;;;10501588;28;20021;-86
2023/01/28 13:31:16;;;;;;;6.32;4.30;;;;;;;;;;10501244;28;20124;-85
2023/01/28 13:36:28;;;;;;;5.97;5.38;;;;;;;;;;10499468;28;20048;-85
2023/01/28 13:41:47;;;;;;;6.28;5.28;;;;;;;;;;10508894;28;20062;-84
2023/01/28 13:46:48;;;;;;;7.50;5.68;;;;;;;;;;10501805;28;20033;-82
2023/01/28 13:51:57;;;;;;;8.35;7.53;;;;;;;;;;10533982;28;20024;-83
2023/01/28 13:56:58;;;;;;;4.75;4.13;;;;;;;;;;10539894;28;20098;-85
2023/01/28 14:02:05;;;;;;;5.22;3.90;;;;;;;;;;10499295;28;20032;-86
2023/01/28 14:07:14;;;;;;;4.82;4.32;;;;;;;;;;10497918;28;20028;-85
2023/01/28 14:12:15;;;;;;;6.15;5.10;;;;;;;;;;10500358;28;20032;-86
2023/01/28 14:17:17;;;;;;;6.15;4.75;;;;;;;;;;10500480;28;20044;-86
2023/01/28 14:22:19;;;;;;;3.88;3.40;;;;;;;;;;10496294;28;20032;-86
2023/01/28 14:27:38;;;;;;;3.78;3.35;;;;;;;;;;10515010;28;20032;-86
2023/01/28 14:32:44;;;;;;;5.13;4.63;;;;;;;;;;10496810;28;20056;-86
2023/01/28 14:37:46;;;;;;;18.23;14.57;;;;;;;;;;10498179;28;20115;-85
2023/01/28 14:42:46;;;;;;;;;;;;;;;;;;10509555;28;20039;-86
2023/01/28 14:47:54;;;;;;;6.70;6.00;;;;;;;;;;10520153;28;19948;-86
2023/01/28 14:52:55;;;;;;;5.95;5.05;;;;;;;;;;10508243;28;20064;-86
2023/01/28 14:58:02;;;;;;;4.43;3.85;;;;;;;;;;10508109;28;20169;-86
2023/01/28 15:03:19;;;;;;;4.43;3.42;;;;;;;;;;10498422;28;20088;-86
2023/01/28 15:08:21;;;;;;;4.15;3.58;;;;;;;;;;10502857;28;20031;-86
2023/01/28 15:13:27;;;;;;;5.20;4.35;;;;;;;;;;10506278;28;20038;-86
2023/01/28 15:18:36;;;;;;;5.68;5.07;;;;;;;;;;10505454;28;20029;-86
2023/01/28 15:23:38;;;;;;;6.50;5.88;;;;;;;;;;10546386;28;20035;-86
2023/01/28 15:28:39;;;;;;;5.85;5.00;;;;;;;;;;10510423;28;20033;-86
2023/01/28 15:33:40;;;;;;;5.03;4.03;;;;;;;;;;10502441;28;20078;-87
2023/01/28 15:38:44;;;;;;;3.70;3.30;;;;;;;;;;10497861;28;20056;-85
2023/01/28 15:43:47;;;;;;;5.82;4.97;;;;;;;;;;10501602;28;20448;-87
2023/01/28 15:48:52;;;;;;;5.25;4.22;;;;;;;;;;10519052;28;20028;-87
2023/01/28 15:54:03;;;;;;;8.10;6.68;;;;;;;;;;10504337;28;20095;-86
2023/01/28 15:59:29;;;;;;;4.93;4.43;;;;;;;;;;10507412;28;20074;-86
2023/01/28 16:04:31;;;;;;;5.25;4.28;;;;;;;;;;10516037;28;20070;-86
2023/01/28 16:09:33;;;;;;;;;;;;;;;;;;10513857;28;20064;-87
2023/01/28 16:14:39;;;;;;;3.78;3.30;;;;;;;;;;10504287;28;19914;-87
2023/01/28 16:19:44;;;;;;;8.10;6.60;;;;;;;;;;10505369;28;20063;-87
2023/01/28 16:24:53;;;;;;;4.07;3.67;;;;;;;;;;10502164;28;20031;-87
2023/01/28 16:29:57;;;;;;;5.47;4.97;;;;;;;;;;10501715;28;20021;-87
2023/01/28 16:35:00;;;;;;;4.03;3.47;;;;;;;;;;10521406;28;20082;-87
2023/01/28 16:40:01;;;;;;;4.60;4.15;;;;;;;;;;10500064;28;20051;-87
2023/01/28 16:45:02;;;;;;;5.78;4.13;;;;;;;;;;10499791;28;20024;-87
2023/01/28 16:50:03;;;;;;;4.95;4.07;;;;;;;;;;10498370;28;20043;-87
2023/01/28 16:55:04;;;;;;;4.97;3.78;;;;;;;;;;10522653;28;20035;-87
2023/01/28 17:00:05;;;;;;;6.03;4.70;;;;;;;;;;10493379;28;20023;-87
2023/01/28 17:05:06;;;;;;;5.43;4.45;;;;;;;;;;10494325;28;20394;-86
2023/01/28 17:10:07;;;;;;;;;;;;;;;;;;10492474;28;20024;-86
2023/01/28 17:15:09;;;;;;;5.57;5.03;;;;;;;;;;10491616;28;19930;-86
2023/01/28 17:20:10;;;;;;;7.28;6.50;;;;;;;;;;10495429;28;20061;-86
2023/01/28 17:25:11;;;;;;;5.53;4.68;;;;;;;;;;10490407;28;20115;-86
2023/01/28 17:30:13;;;;;;;7.10;6.18;;;;;;;;;;10491815;28;20031;-86
2023/01/28 17:35:14;;;;;;;5.97;5.22;;;;;;;;;;10487831;28;20028;-86
2023/01/28 17:40:15;;;;;;;;;;;;;;;;;;10490755;28;20032;-86
2023/01/28 17:45:16;;;;;;;7.28;6.35;;;;;;;;;;10490883;28;19959;-85
2023/01/28 17:50:17;;;;;;;5.20;4.70;;;;;;;;;;10506125;28;20029;-86
2023/01/28 17:55:18;;;;;;;10.40;8.40;;;;;;;;;;10489480;28;20028;-86
2023/01/28 18:00:19;;;;;;;8.98;7.20;;;;;;;;;;10489645;28;20172;-85
2023/01/28 18:05:21;;;;;;;10.00;7.88;;;;;;;;;;10494810;28;20025;-86
2023/01/28 18:10:22;;;;;;;7.90;7.10;;;;;;;;;;10517969;28;20012;-84
2023/01/28 18:15:23;;;;;;;;;;;;;;;;;;10532319;28;20040;-86
2023/01/28 18:20:24;;;;;;;;;;;;;;;;;;10513450;28;19904;-86
2023/01/28 18:25:25;;;;;;;6.13;5.25;;;;;;;;;;10497122;28;20247;-86
2023/01/28 18:30:26;;;;;;;;;;;;;;;;;;10498017;28;20028;-86
2023/01/28 18:35:27;;;;;;;9.18;8.25;;;;;;;;;;10495221;28;19909;-86
2023/01/28 18:45:54;;;;;;;7.90;6.88;;;;;;;;;;10553042;28;20032;-85
2023/01/28 18:50:57;;;;;;;6.57;5.72;;;;;;;;;;10553469;28;20100;-86
2023/01/28 18:56:02;;;;;;;6.93;6.22;;;;;;;;;;10542637;28;20048;-85
2023/01/28 19:01:14;;;;;;;10.43;9.25;;;;;;;;;;10539989;28;20035;-85
2023/01/28 19:06:22;;;;;;;6.93;6.22;;;;;;;;;;10522813;28;20039;-85
2023/01/28 19:11:23;;;;;;;14.95;12.05;;;;;;;;;;10539730;28;20028;-85
2023/01/28 19:16:48;;;;;;;7.38;6.60;;;;;;;;;;10538689;28;20111;-85
2023/01/28 19:22:29;;;;;;;10.48;9.07;;;;;;;;;;10537997;28;20028;-84
2023/01/28 19:39:13;;;;;;;12.65;10.63;;;;;;;;;;10550169;28;20028;-83
2023/01/28 19:44:36;;;;;;;13.07;11.65;;;;;;;;;;10529674;28;20070;-84
2023/01/28 19:56:28;;;;;;;15.50;12.73;;;;;;;;;;10550253;28;20059;-85
2023/01/28 20:01:59;;;;;;;8.15;7.25;;;;;;;;;;10347187;28;20081;-84
2023/01/28 20:07:44;;;;;;;12.50;10.82;;;;;;;;;;10269236;29;20043;-85
2023/01/28 20:13:04;;;;;;;11.18;9.95;;;;;;;;;;10238052;28;20027;-83
